DLH564 EDDF-LBWN
Flight info
| Callsign | DLH564 |
|---|---|
| Flight time | 2h 6m |
| Altitude | 37000 |
| Route | CINDY8S/18 CINDY Z74 LAMPU DCT NOMBO Y161 MAH DCT LATLO/N0476F390 DCT OBEDI DCT BEDOX DCT TUVAR DCT ETIDA DCT GOGAR DCT XANEX N605 DICXA |
| Aircraft | A346/H-SDE2E3FGHIJ3J4J5M1RWXY/LB1D1 |
Departure
| Time | 2026-05-08 18:11 |
|---|---|
| Airport | Frankfurt Main Airport (EDDF) |
Arrival
| Time | 2026-05-08 20:17 |
|---|---|
| Airport | Varna Airport (LBWN) |
| Time | Latitude | Longitude | Altitude | Speed | Heading |
|---|---|---|---|---|---|
| 2026-05-08 17:39 | 50.04723 | 8.56277 | 364 ft | 0 kts | 340° |
| 2026-05-08 17:54 | 50.04701 | 8.56290 | 369 ft | 4 kts | 340° |
| 2026-05-08 17:54 | 50.04680 | 8.56302 | 368 ft | 4 kts | 338° |
| 2026-05-08 17:54 | 50.04660 | 8.56321 | 371 ft | 4 kts | 313° |
| 2026-05-08 17:54 | 50.04651 | 8.56347 | 368 ft | 4 kts | 277° |
| 2026-05-08 17:55 | 50.04653 | 8.56380 | 368 ft | 4 kts | 251° |
| 2026-05-08 17:55 | 50.04653 | 8.56379 | 368 ft | 4 kts | 249° |
| 2026-05-08 17:55 | 50.04644 | 8.56340 | 368 ft | 4 kts | 249° |
| 2026-05-08 17:55 | 50.04634 | 8.56301 | 368 ft | 4 kts | 249° |
| 2026-05-08 17:56 | 50.04625 | 8.56261 | 364 ft | 4 kts | 249° |
| 2026-05-08 17:56 | 50.04616 | 8.56222 | 367 ft | 4 kts | 250° |
| 2026-05-08 17:56 | 50.04606 | 8.56183 | 367 ft | 4 kts | 250° |
| 2026-05-08 17:56 | 50.04597 | 8.56144 | 369 ft | 4 kts | 250° |
| 2026-05-08 17:57 | 50.04588 | 8.56104 | 368 ft | 4 kts | 250° |
| 2026-05-08 17:57 | 50.04585 | 8.56092 | 370 ft | 0 kts | 250° |
| 2026-05-08 17:59 | 50.04584 | 8.56088 | 370 ft | 1 kts | 250° |
| 2026-05-08 17:59 | 50.04577 | 8.56057 | 368 ft | 5 kts | 250° |
| 2026-05-08 18:00 | 50.04557 | 8.56002 | 372 ft | 7 kts | 230° |
| 2026-05-08 18:00 | 50.04427 | 8.55916 | 369 ft | 13 kts | 187° |
| 2026-05-08 18:00 | 50.04331 | 8.55937 | 368 ft | 16 kts | 162° |
| 2026-05-08 18:01 | 50.04219 | 8.55930 | 362 ft | 14 kts | 188° |
| 2026-05-08 18:01 | 50.04161 | 8.55935 | 366 ft | 0 kts | 164° |
| 2026-05-08 18:01 | 50.04156 | 8.55937 | 365 ft | 2 kts | 164° |
| 2026-05-08 18:02 | 50.04131 | 8.55950 | 366 ft | 5 kts | 162° |
| 2026-05-08 18:02 | 50.04101 | 8.55963 | 365 ft | 8 kts | 167° |
| 2026-05-08 18:02 | 50.04031 | 8.55883 | 364 ft | 13 kts | 248° |
| 2026-05-08 18:02 | 50.03996 | 8.55728 | 363 ft | 17 kts | 250° |
| 2026-05-08 18:03 | 50.03950 | 8.55533 | 359 ft | 21 kts | 250° |
| 2026-05-08 18:03 | 50.03896 | 8.55310 | 362 ft | 22 kts | 249° |
| 2026-05-08 18:03 | 50.03848 | 8.55112 | 361 ft | 21 kts | 249° |
| 2026-05-08 18:03 | 50.03792 | 8.54881 | 362 ft | 24 kts | 250° |
| 2026-05-08 18:04 | 50.03732 | 8.54620 | 361 ft | 23 kts | 250° |
| 2026-05-08 18:04 | 50.03700 | 8.54425 | 351 ft | 17 kts | 282° |
| 2026-05-08 18:04 | 50.03764 | 8.54353 | 360 ft | 12 kts | 339° |
| 2026-05-08 18:04 | 50.03800 | 8.54251 | 358 ft | 13 kts | 264° |
| 2026-05-08 18:05 | 50.03771 | 8.54102 | 360 ft | 16 kts | 246° |
| 2026-05-08 18:05 | 50.03748 | 8.54013 | 359 ft | 9 kts | 250° |
| 2026-05-08 18:05 | 50.03723 | 8.53903 | 359 ft | 12 kts | 250° |
| 2026-05-08 18:05 | 50.03690 | 8.53761 | 359 ft | 16 kts | 249° |
| 2026-05-08 18:06 | 50.03646 | 8.53584 | 357 ft | 19 kts | 248° |
| 2026-05-08 18:06 | 50.03594 | 8.53372 | 354 ft | 22 kts | 250° |
| 2026-05-08 18:06 | 50.03541 | 8.53150 | 352 ft | 21 kts | 249° |
| 2026-05-08 18:06 | 50.03500 | 8.52981 | 354 ft | 8 kts | 249° |
| 2026-05-08 18:07 | 50.03473 | 8.52877 | 351 ft | 12 kts | 247° |
| 2026-05-08 18:07 | 50.03441 | 8.52759 | 351 ft | 6 kts | 248° |
| 2026-05-08 18:07 | 50.03441 | 8.52757 | 350 ft | 0 kts | 248° |
| 2026-05-08 18:09 | 50.03438 | 8.52747 | 344 ft | 3 kts | 248° |
| 2026-05-08 18:09 | 50.03431 | 8.52720 | 353 ft | 5 kts | 248° |
| 2026-05-08 18:09 | 50.03412 | 8.52649 | 349 ft | 8 kts | 239° |
| 2026-05-08 18:09 | 50.03355 | 8.52599 | 349 ft | 11 kts | 188° |
| 2026-05-08 18:10 | 50.03310 | 8.52595 | 349 ft | 0 kts | 180° |
| 2026-05-08 18:10 | 50.03295 | 8.52595 | 353 ft | 16 kts | 180° |
| 2026-05-08 18:10 | 50.03065 | 8.52595 | 344 ft | 82 kts | 179° |
| 2026-05-08 18:10 | 50.01794 | 8.52608 | 351 ft | 188 kts | 180° |
| 2026-05-08 18:11 | 50.00821 | 8.52610 | 478 ft | 221 kts | 179° |
| 2026-05-08 18:11 | 49.99209 | 8.52643 | 1165 ft | 240 kts | 178° |
| 2026-05-08 18:11 | 49.97464 | 8.52776 | 1796 ft | 262 kts | 172° |
| 2026-05-08 18:11 | 49.95662 | 8.53567 | 2472 ft | 279 kts | 147° |
| 2026-05-08 18:12 | 49.94359 | 8.55848 | 3119 ft | 292 kts | 112° |
| 2026-05-08 18:12 | 49.93826 | 8.58830 | 4360 ft | 272 kts | 99° |
| 2026-05-08 18:12 | 49.93648 | 8.61609 | 5444 ft | 257 kts | 90° |
| 2026-05-08 18:12 | 49.93679 | 8.64440 | 6280 ft | 269 kts | 89° |
| 2026-05-08 18:13 | 49.93676 | 8.67421 | 6776 ft | 280 kts | 97° |
| 2026-05-08 18:13 | 49.92993 | 8.70210 | 7027 ft | 280 kts | 129° |
| 2026-05-08 18:13 | 49.91524 | 8.72186 | 7250 ft | 284 kts | 147° |
| 2026-05-08 18:13 | 49.89879 | 8.73936 | 8097 ft | 287 kts | 146° |
| 2026-05-08 18:14 | 49.88412 | 8.76024 | 9200 ft | 288 kts | 132° |
| 2026-05-08 18:14 | 49.87268 | 8.78606 | 10140 ft | 294 kts | 122° |
| 2026-05-08 18:14 | 49.86230 | 8.81436 | 10737 ft | 310 kts | 121° |
| 2026-05-08 18:14 | 49.85148 | 8.84473 | 11041 ft | 335 kts | 120° |
| 2026-05-08 18:15 | 49.83960 | 8.87793 | 11089 ft | 367 kts | 120° |
| 2026-05-08 18:15 | 49.82696 | 8.91308 | 11091 ft | 378 kts | 121° |
| 2026-05-08 18:15 | 49.81406 | 8.94877 | 11088 ft | 380 kts | 121° |
| 2026-05-08 18:15 | 49.80109 | 8.98450 | 11088 ft | 380 kts | 121° |
| 2026-05-08 18:16 | 49.78804 | 9.02031 | 11083 ft | 380 kts | 121° |
| 2026-05-08 18:16 | 49.77518 | 9.05609 | 11086 ft | 380 kts | 119° |
| 2026-05-08 18:16 | 49.76428 | 9.09282 | 11081 ft | 381 kts | 112° |
| 2026-05-08 18:16 | 49.75554 | 9.13159 | 11084 ft | 382 kts | 109° |
| 2026-05-08 18:17 | 49.74643 | 9.17020 | 11084 ft | 381 kts | 114° |
| 2026-05-08 18:17 | 49.73394 | 9.20636 | 11079 ft | 380 kts | 124° |
| 2026-05-08 18:17 | 49.71789 | 9.23879 | 11090 ft | 379 kts | 131° |
| 2026-05-08 18:17 | 49.70075 | 9.26972 | 11090 ft | 379 kts | 132° |
| 2026-05-08 18:18 | 49.68337 | 9.30030 | 11089 ft | 379 kts | 133° |
| 2026-05-08 18:18 | 49.66597 | 9.33081 | 11089 ft | 378 kts | 133° |
| 2026-05-08 18:18 | 49.64859 | 9.36135 | 11090 ft | 378 kts | 133° |
| 2026-05-08 18:18 | 49.63078 | 9.39135 | 11091 ft | 378 kts | 136° |
| 2026-05-08 18:19 | 49.61110 | 9.41816 | 11092 ft | 377 kts | 143° |
| 2026-05-08 18:19 | 49.58960 | 9.44121 | 11089 ft | 376 kts | 149° |
| 2026-05-08 18:19 | 49.56723 | 9.46203 | 11076 ft | 375 kts | 151° |
| 2026-05-08 18:19 | 49.54474 | 9.48244 | 11082 ft | 376 kts | 151° |
| 2026-05-08 18:20 | 49.52217 | 9.50282 | 11084 ft | 376 kts | 151° |
| 2026-05-08 18:20 | 49.49963 | 9.52324 | 11085 ft | 376 kts | 150° |
| 2026-05-08 18:20 | 49.47714 | 9.54369 | 11079 ft | 376 kts | 150° |
| 2026-05-08 18:20 | 49.45463 | 9.56416 | 11082 ft | 376 kts | 150° |
| 2026-05-08 18:21 | 49.43212 | 9.58464 | 11089 ft | 377 kts | 151° |
| 2026-05-08 18:21 | 49.40916 | 9.60550 | 11435 ft | 389 kts | 151° |
| 2026-05-08 18:21 | 49.38589 | 9.62663 | 12497 ft | 386 kts | 151° |
| 2026-05-08 18:21 | 49.36287 | 9.64789 | 13596 ft | 387 kts | 148° |
| 2026-05-08 18:22 | 49.34073 | 9.67188 | 14436 ft | 393 kts | 143° |
| 2026-05-08 18:22 | 49.31981 | 9.69933 | 15211 ft | 398 kts | 138° |
| 2026-05-08 18:22 | 49.29990 | 9.72926 | 16008 ft | 402 kts | 136° |
| 2026-05-08 18:22 | 49.28005 | 9.75971 | 16797 ft | 406 kts | 136° |
| 2026-05-08 18:23 | 49.25991 | 9.79064 | 17556 ft | 411 kts | 137° |
| 2026-05-08 18:23 | 49.23956 | 9.82176 | 18313 ft | 416 kts | 137° |
| 2026-05-08 18:23 | 49.21892 | 9.85323 | 18969 ft | 421 kts | 137° |
| 2026-05-08 18:23 | 49.19804 | 9.88499 | 19620 ft | 425 kts | 137° |
| 2026-05-08 18:24 | 49.17693 | 9.91704 | 20268 ft | 430 kts | 137° |
| 2026-05-08 18:24 | 49.15552 | 9.94950 | 20924 ft | 434 kts | 137° |
| 2026-05-08 18:24 | 49.13390 | 9.98221 | 21574 ft | 439 kts | 137° |
| 2026-05-08 18:24 | 49.11201 | 10.01528 | 22205 ft | 443 kts | 137° |
| 2026-05-08 18:25 | 49.08993 | 10.04859 | 22825 ft | 448 kts | 137° |
| 2026-05-08 18:25 | 49.06766 | 10.08219 | 23445 ft | 453 kts | 137° |
| 2026-05-08 18:25 | 49.04487 | 10.11564 | 23929 ft | 456 kts | 139° |
| 2026-05-08 18:25 | 49.02146 | 10.14868 | 24261 ft | 461 kts | 140° |
| 2026-05-08 18:26 | 48.99807 | 10.18136 | 24834 ft | 463 kts | 140° |
| 2026-05-08 18:26 | 48.97396 | 10.21515 | 25408 ft | 466 kts | 140° |
| 2026-05-08 18:26 | 48.95008 | 10.24873 | 25967 ft | 469 kts | 140° |
| 2026-05-08 18:26 | 48.92641 | 10.28215 | 26499 ft | 472 kts | 140° |
| 2026-05-08 18:27 | 48.90189 | 10.31678 | 27010 ft | 475 kts | 140° |
| 2026-05-08 18:27 | 48.88583 | 10.33943 | 27366 ft | 477 kts | 140° |
| 2026-05-08 18:27 | 48.85341 | 10.38506 | 28064 ft | 481 kts | 140° |
| 2026-05-08 18:27 | 48.82901 | 10.42021 | 28568 ft | 485 kts | 138° |
| 2026-05-08 18:28 | 48.80562 | 10.45711 | 29255 ft | 485 kts | 136° |
| 2026-05-08 18:28 | 48.78249 | 10.49421 | 30050 ft | 482 kts | 136° |
| 2026-05-08 18:28 | 48.75947 | 10.53101 | 30689 ft | 480 kts | 137° |
| 2026-05-08 18:28 | 48.73650 | 10.56769 | 31261 ft | 479 kts | 137° |
| 2026-05-08 18:29 | 48.71351 | 10.60430 | 31790 ft | 480 kts | 137° |
| 2026-05-08 18:29 | 48.69046 | 10.64095 | 32295 ft | 481 kts | 137° |
| 2026-05-08 18:29 | 48.66738 | 10.67763 | 32831 ft | 481 kts | 137° |
| 2026-05-08 18:29 | 48.64428 | 10.71434 | 33363 ft | 481 kts | 136° |
| 2026-05-08 18:30 | 48.62121 | 10.75095 | 33914 ft | 481 kts | 136° |
| 2026-05-08 18:30 | 48.59809 | 10.78759 | 34362 ft | 481 kts | 136° |
| 2026-05-08 18:30 | 48.57503 | 10.82421 | 34777 ft | 481 kts | 136° |
| 2026-05-08 18:30 | 48.55198 | 10.86112 | 35169 ft | 482 kts | 136° |
| 2026-05-08 18:31 | 48.52894 | 10.89807 | 35549 ft | 483 kts | 136° |
| 2026-05-08 18:31 | 48.50585 | 10.93499 | 35932 ft | 484 kts | 136° |
| 2026-05-08 18:31 | 48.48261 | 10.97191 | 36254 ft | 485 kts | 137° |
| 2026-05-08 18:31 | 48.45918 | 11.00860 | 36553 ft | 487 kts | 137° |
| 2026-05-08 18:32 | 48.43552 | 11.04541 | 36830 ft | 489 kts | 137° |
| 2026-05-08 18:32 | 48.41177 | 11.08230 | 37074 ft | 491 kts | 137° |
| 2026-05-08 18:32 | 48.36403 | 11.15639 | 37082 ft | 493 kts | 137° |
| 2026-05-08 18:33 | 48.31622 | 11.23050 | 37068 ft | 493 kts | 136° |
| 2026-05-08 18:33 | 48.27136 | 11.30877 | 37080 ft | 495 kts | 130° |
| 2026-05-08 18:34 | 48.23228 | 11.39429 | 37080 ft | 498 kts | 123° |
| 2026-05-08 18:34 | 48.19783 | 11.48463 | 37082 ft | 498 kts | 122° |
| 2026-05-08 18:35 | 48.16356 | 11.57523 | 37077 ft | 498 kts | 122° |
| 2026-05-08 18:35 | 48.12925 | 11.66547 | 37068 ft | 498 kts | 122° |
| 2026-05-08 18:36 | 48.09485 | 11.75540 | 37066 ft | 497 kts | 122° |
| 2026-05-08 18:36 | 48.06047 | 11.84495 | 37065 ft | 497 kts | 123° |
| 2026-05-08 18:37 | 48.02593 | 11.93462 | 37046 ft | 497 kts | 123° |
| 2026-05-08 18:37 | 47.99134 | 12.02423 | 37042 ft | 496 kts | 123° |
| 2026-05-08 18:38 | 47.95670 | 12.11355 | 37052 ft | 496 kts | 123° |
| 2026-05-08 18:38 | 47.92204 | 12.20261 | 37056 ft | 496 kts | 123° |
| 2026-05-08 18:39 | 47.88732 | 12.29155 | 37060 ft | 496 kts | 123° |
| 2026-05-08 18:39 | 47.85252 | 12.38040 | 37062 ft | 496 kts | 123° |
| 2026-05-08 18:40 | 47.81761 | 12.46924 | 37061 ft | 496 kts | 123° |
| 2026-05-08 18:40 | 47.78267 | 12.55788 | 37059 ft | 496 kts | 123° |
| 2026-05-08 18:41 | 47.74765 | 12.64636 | 37058 ft | 496 kts | 123° |
| 2026-05-08 18:41 | 47.71231 | 12.73433 | 37052 ft | 494 kts | 126° |
| 2026-05-08 18:42 | 47.67243 | 12.81683 | 37058 ft | 490 kts | 133° |
| 2026-05-08 18:42 | 47.62669 | 12.89170 | 37062 ft | 487 kts | 139° |
| 2026-05-08 18:43 | 47.57860 | 12.96250 | 37061 ft | 487 kts | 139° |
| 2026-05-08 18:43 | 47.53043 | 13.03341 | 37072 ft | 487 kts | 139° |
| 2026-05-08 18:44 | 47.48240 | 13.10405 | 37070 ft | 486 kts | 139° |
| 2026-05-08 18:44 | 47.43436 | 13.17441 | 37084 ft | 485 kts | 139° |
| 2026-05-08 18:45 | 47.38636 | 13.24465 | 37082 ft | 486 kts | 139° |
| 2026-05-08 18:45 | 47.34041 | 13.31830 | 37092 ft | 488 kts | 133° |
| 2026-05-08 18:46 | 47.29992 | 13.39919 | 37076 ft | 492 kts | 126° |
| 2026-05-08 18:46 | 47.26420 | 13.48549 | 37090 ft | 493 kts | 124° |
| 2026-05-08 18:47 | 47.22889 | 13.57211 | 37089 ft | 493 kts | 124° |
| 2026-05-08 18:47 | 47.19343 | 13.65862 | 37066 ft | 494 kts | 124° |
| 2026-05-08 18:48 | 47.15780 | 13.74519 | 37077 ft | 494 kts | 124° |
| 2026-05-08 18:48 | 47.12238 | 13.83096 | 37081 ft | 494 kts | 124° |
| 2026-05-08 18:49 | 47.08666 | 13.91713 | 37081 ft | 494 kts | 124° |
| 2026-05-08 18:49 | 47.05087 | 14.00319 | 37077 ft | 494 kts | 124° |
| 2026-05-08 18:50 | 47.01504 | 14.08915 | 37057 ft | 493 kts | 125° |
| 2026-05-08 18:50 | 46.97917 | 14.17490 | 37075 ft | 494 kts | 125° |
| 2026-05-08 18:51 | 46.94319 | 14.26062 | 37068 ft | 494 kts | 125° |
| 2026-05-08 18:51 | 46.90717 | 14.34621 | 37049 ft | 493 kts | 125° |
| 2026-05-08 18:52 | 46.87106 | 14.43172 | 37043 ft | 493 kts | 125° |
| 2026-05-08 18:52 | 46.83493 | 14.51704 | 37057 ft | 494 kts | 125° |
| 2026-05-08 18:53 | 46.79868 | 14.60233 | 37060 ft | 493 kts | 125° |
| 2026-05-08 18:53 | 46.76240 | 14.68745 | 37061 ft | 493 kts | 125° |
| 2026-05-08 18:54 | 46.73222 | 14.75807 | 37063 ft | 493 kts | 125° |
| 2026-05-08 18:54 | 46.69586 | 14.84290 | 37061 ft | 492 kts | 125° |
| 2026-05-08 18:55 | 46.64118 | 14.96998 | 37064 ft | 493 kts | 126° |
| 2026-05-08 18:56 | 46.60460 | 15.05468 | 37068 ft | 492 kts | 126° |
| 2026-05-08 18:56 | 46.56808 | 15.13893 | 37054 ft | 491 kts | 126° |
| 2026-05-08 18:57 | 46.53160 | 15.22289 | 37063 ft | 491 kts | 126° |
| 2026-05-08 18:57 | 46.49501 | 15.30685 | 37060 ft | 491 kts | 126° |
| 2026-05-08 18:58 | 46.45842 | 15.39053 | 37058 ft | 490 kts | 126° |
| 2026-05-08 18:58 | 46.42180 | 15.47404 | 37051 ft | 491 kts | 126° |
| 2026-05-08 18:59 | 46.38504 | 15.55760 | 37059 ft | 491 kts | 126° |
| 2026-05-08 18:59 | 46.34843 | 15.64057 | 37056 ft | 491 kts | 126° |
| 2026-05-08 19:00 | 46.31151 | 15.72397 | 37056 ft | 491 kts | 126° |
| 2026-05-08 19:00 | 46.27494 | 15.80755 | 37049 ft | 492 kts | 123° |
| 2026-05-08 19:01 | 46.24308 | 15.89551 | 37053 ft | 494 kts | 118° |
| 2026-05-08 19:01 | 46.21347 | 15.98521 | 37050 ft | 494 kts | 118° |
| 2026-05-08 19:02 | 46.18371 | 16.07510 | 37049 ft | 494 kts | 118° |
| 2026-05-08 19:02 | 46.15392 | 16.16465 | 37042 ft | 494 kts | 118° |
| 2026-05-08 19:03 | 46.12403 | 16.25411 | 37045 ft | 495 kts | 118° |
| 2026-05-08 19:03 | 46.09402 | 16.34357 | 37045 ft | 495 kts | 118° |
| 2026-05-08 19:04 | 46.06397 | 16.43288 | 37047 ft | 495 kts | 119° |
| 2026-05-08 19:04 | 46.03385 | 16.52206 | 37054 ft | 495 kts | 119° |
| 2026-05-08 19:05 | 46.00361 | 16.61131 | 37041 ft | 496 kts | 119° |
| 2026-05-08 19:05 | 45.97331 | 16.70044 | 37035 ft | 496 kts | 119° |
| 2026-05-08 19:06 | 45.94295 | 16.78943 | 37035 ft | 496 kts | 119° |
| 2026-05-08 19:06 | 45.91250 | 16.87838 | 37030 ft | 494 kts | 119° |
| 2026-05-08 19:07 | 45.88210 | 16.96692 | 37037 ft | 494 kts | 119° |
| 2026-05-08 19:07 | 45.85156 | 17.05555 | 37040 ft | 494 kts | 119° |
| 2026-05-08 19:08 | 45.82101 | 17.14392 | 37041 ft | 494 kts | 119° |
| 2026-05-08 19:08 | 45.79059 | 17.23162 | 37040 ft | 493 kts | 119° |
| 2026-05-08 19:09 | 45.75994 | 17.31969 | 37042 ft | 493 kts | 119° |
| 2026-05-08 19:09 | 45.72922 | 17.40768 | 37044 ft | 493 kts | 119° |
| 2026-05-08 19:10 | 45.69844 | 17.49553 | 37031 ft | 493 kts | 119° |
| 2026-05-08 19:10 | 45.66756 | 17.58338 | 37043 ft | 494 kts | 120° |
| 2026-05-08 19:11 | 45.63662 | 17.67114 | 37043 ft | 494 kts | 120° |
| 2026-05-08 19:11 | 45.60560 | 17.75883 | 37044 ft | 494 kts | 120° |
| 2026-05-08 19:12 | 45.57451 | 17.84641 | 37030 ft | 493 kts | 120° |
| 2026-05-08 19:12 | 45.54346 | 17.93362 | 37034 ft | 492 kts | 120° |
| 2026-05-08 19:13 | 45.51230 | 18.02083 | 37037 ft | 492 kts | 120° |
| 2026-05-08 19:13 | 45.48106 | 18.10798 | 37034 ft | 492 kts | 120° |
| 2026-05-08 19:14 | 45.44980 | 18.19491 | 37030 ft | 491 kts | 120° |
| 2026-05-08 19:14 | 45.41856 | 18.28151 | 37034 ft | 491 kts | 120° |
| 2026-05-08 19:15 | 45.38716 | 18.36830 | 37032 ft | 491 kts | 120° |
| 2026-05-08 19:15 | 45.35595 | 18.45426 | 37036 ft | 491 kts | 120° |
| 2026-05-08 19:16 | 45.32453 | 18.54052 | 37034 ft | 491 kts | 120° |
| 2026-05-08 19:16 | 45.29306 | 18.62666 | 37036 ft | 490 kts | 120° |
| 2026-05-08 19:17 | 45.26155 | 18.71263 | 37031 ft | 490 kts | 120° |
| 2026-05-08 19:17 | 45.22997 | 18.79851 | 37032 ft | 490 kts | 120° |
| 2026-05-08 19:18 | 45.19835 | 18.88422 | 37029 ft | 489 kts | 120° |
| 2026-05-08 19:18 | 45.16669 | 18.96977 | 37031 ft | 489 kts | 120° |
| 2026-05-08 19:19 | 45.13492 | 19.05531 | 37032 ft | 489 kts | 120° |
| 2026-05-08 19:19 | 45.10156 | 19.13940 | 37028 ft | 488 kts | 122° |
| 2026-05-08 19:20 | 45.06757 | 19.22273 | 37029 ft | 488 kts | 122° |
| 2026-05-08 19:20 | 45.03353 | 19.30591 | 37029 ft | 488 kts | 122° |
| 2026-05-08 19:21 | 44.99942 | 19.38901 | 37029 ft | 488 kts | 123° |
| 2026-05-08 19:21 | 44.96524 | 19.47205 | 37019 ft | 488 kts | 123° |
| 2026-05-08 19:22 | 44.93105 | 19.55486 | 37028 ft | 488 kts | 123° |
| 2026-05-08 19:22 | 44.89681 | 19.63756 | 37029 ft | 487 kts | 123° |
| 2026-05-08 19:23 | 44.86250 | 19.72018 | 37026 ft | 487 kts | 123° |
| 2026-05-08 19:23 | 44.82816 | 19.80262 | 37020 ft | 488 kts | 123° |
| 2026-05-08 19:24 | 44.79369 | 19.88509 | 37020 ft | 488 kts | 123° |
| 2026-05-08 19:24 | 44.75922 | 19.96743 | 37027 ft | 488 kts | 123° |
| 2026-05-08 19:25 | 44.72457 | 20.04992 | 37028 ft | 488 kts | 123° |
| 2026-05-08 19:25 | 44.69020 | 20.13147 | 37026 ft | 487 kts | 123° |
| 2026-05-08 19:26 | 44.65558 | 20.21341 | 37037 ft | 487 kts | 123° |
| 2026-05-08 19:26 | 44.62093 | 20.29518 | 37024 ft | 487 kts | 123° |
| 2026-05-08 19:27 | 44.58619 | 20.37693 | 37028 ft | 487 kts | 123° |
| 2026-05-08 19:27 | 44.55140 | 20.45851 | 37030 ft | 487 kts | 123° |
| 2026-05-08 19:28 | 44.51656 | 20.54005 | 37028 ft | 487 kts | 123° |
| 2026-05-08 19:28 | 44.48165 | 20.62151 | 37031 ft | 487 kts | 123° |
| 2026-05-08 19:29 | 44.44669 | 20.70276 | 37019 ft | 487 kts | 123° |
| 2026-05-08 19:29 | 44.41167 | 20.78398 | 37024 ft | 486 kts | 123° |
| 2026-05-08 19:30 | 44.37670 | 20.86491 | 37028 ft | 486 kts | 123° |
| 2026-05-08 19:30 | 44.34162 | 20.94584 | 37028 ft | 486 kts | 123° |
| 2026-05-08 19:31 | 44.30642 | 21.02677 | 37024 ft | 485 kts | 123° |
| 2026-05-08 19:31 | 44.27132 | 21.10727 | 37030 ft | 485 kts | 123° |
| 2026-05-08 19:32 | 44.23613 | 21.18777 | 37032 ft | 485 kts | 123° |
| 2026-05-08 19:32 | 44.20091 | 21.26810 | 37031 ft | 485 kts | 123° |
| 2026-05-08 19:33 | 44.16563 | 21.34833 | 37033 ft | 485 kts | 123° |
| 2026-05-08 19:33 | 44.13033 | 21.42839 | 37040 ft | 485 kts | 123° |
| 2026-05-08 19:34 | 44.09519 | 21.50787 | 37036 ft | 485 kts | 123° |
| 2026-05-08 19:34 | 44.05960 | 21.58813 | 37030 ft | 485 kts | 123° |
| 2026-05-08 19:35 | 44.02408 | 21.66801 | 37041 ft | 485 kts | 123° |
| 2026-05-08 19:35 | 43.98852 | 21.74778 | 37043 ft | 485 kts | 123° |
| 2026-05-08 19:36 | 43.95290 | 21.82748 | 37045 ft | 485 kts | 123° |
| 2026-05-08 19:36 | 43.91720 | 21.90707 | 37042 ft | 485 kts | 123° |
| 2026-05-08 19:37 | 43.88148 | 21.98654 | 37047 ft | 485 kts | 123° |
| 2026-05-08 19:37 | 43.84573 | 22.06586 | 37039 ft | 485 kts | 123° |
| 2026-05-08 19:38 | 43.80993 | 22.14506 | 37043 ft | 485 kts | 123° |
| 2026-05-08 19:38 | 43.77406 | 22.22418 | 37042 ft | 485 kts | 123° |
| 2026-05-08 19:39 | 43.73812 | 22.30322 | 37039 ft | 485 kts | 123° |
| 2026-05-08 19:39 | 43.70508 | 22.38394 | 37041 ft | 486 kts | 117° |
| 2026-05-08 19:40 | 43.67831 | 22.46984 | 37046 ft | 487 kts | 111° |
| 2026-05-08 19:40 | 43.65843 | 22.55936 | 37050 ft | 487 kts | 105° |
| 2026-05-08 19:41 | 43.64115 | 22.64995 | 37045 ft | 487 kts | 105° |
| 2026-05-08 19:41 | 43.62381 | 22.74054 | 37043 ft | 487 kts | 105° |
| 2026-05-08 19:42 | 43.60634 | 22.83104 | 37040 ft | 488 kts | 105° |
| 2026-05-08 19:42 | 43.59162 | 22.90685 | 37035 ft | 488 kts | 105° |
| 2026-05-08 19:43 | 43.57396 | 22.99735 | 37043 ft | 488 kts | 105° |
| 2026-05-08 19:43 | 43.55622 | 23.08779 | 37035 ft | 488 kts | 106° |
| 2026-05-08 19:44 | 43.53843 | 23.17813 | 37027 ft | 487 kts | 106° |
| 2026-05-08 19:44 | 43.52070 | 23.26772 | 37035 ft | 487 kts | 106° |
| 2026-05-08 19:45 | 43.50278 | 23.35784 | 37039 ft | 487 kts | 106° |
| 2026-05-08 19:45 | 43.48479 | 23.44795 | 37035 ft | 487 kts | 106° |
| 2026-05-08 19:46 | 43.46673 | 23.53797 | 37029 ft | 487 kts | 106° |
| 2026-05-08 19:46 | 43.43954 | 23.67273 | 37026 ft | 486 kts | 106° |
| 2026-05-08 19:47 | 43.42131 | 23.76259 | 37037 ft | 486 kts | 106° |
| 2026-05-08 19:47 | 43.40303 | 23.85230 | 37023 ft | 486 kts | 107° |
| 2026-05-08 19:48 | 43.38402 | 23.94151 | 37016 ft | 485 kts | 109° |
| 2026-05-08 19:48 | 43.36495 | 24.03052 | 37002 ft | 486 kts | 99° |
| 2026-05-08 19:49 | 43.36000 | 24.12337 | 37020 ft | 486 kts | 93° |
| 2026-05-08 19:49 | 43.35681 | 24.21628 | 37012 ft | 485 kts | 94° |
| 2026-05-08 19:50 | 43.35322 | 24.30899 | 37008 ft | 485 kts | 94° |
| 2026-05-08 19:50 | 43.34932 | 24.40193 | 37005 ft | 485 kts | 94° |
| 2026-05-08 19:51 | 43.34530 | 24.49459 | 37008 ft | 485 kts | 94° |
| 2026-05-08 19:51 | 43.34119 | 24.58724 | 37002 ft | 485 kts | 95° |
| 2026-05-08 19:52 | 43.33743 | 24.68002 | 37016 ft | 486 kts | 92° |
| 2026-05-08 19:52 | 43.33615 | 24.77296 | 37002 ft | 486 kts | 92° |
| 2026-05-08 19:53 | 43.33498 | 24.86600 | 37013 ft | 486 kts | 92° |
| 2026-05-08 19:53 | 43.33357 | 24.95829 | 37008 ft | 486 kts | 92° |
| 2026-05-08 19:54 | 43.33197 | 25.05122 | 37012 ft | 486 kts | 92° |
| 2026-05-08 19:54 | 43.33026 | 25.14381 | 36695 ft | 480 kts | 92° |
| 2026-05-08 19:55 | 43.32939 | 25.18965 | 36081 ft | 479 kts | 92° |
| 2026-05-08 19:55 | 43.32850 | 25.23534 | 35596 ft | 476 kts | 92° |
| 2026-05-08 19:55 | 43.32760 | 25.28064 | 35139 ft | 472 kts | 93° |
| 2026-05-08 19:55 | 43.32668 | 25.32561 | 34619 ft | 469 kts | 93° |
| 2026-05-08 19:56 | 43.32576 | 25.37043 | 34048 ft | 469 kts | 93° |
| 2026-05-08 19:56 | 43.32481 | 25.41523 | 33396 ft | 468 kts | 93° |
| 2026-05-08 19:56 | 43.32384 | 25.45999 | 32695 ft | 468 kts | 93° |
| 2026-05-08 19:56 | 43.32285 | 25.50484 | 31948 ft | 470 kts | 93° |
| 2026-05-08 19:57 | 43.32184 | 25.54984 | 31202 ft | 472 kts | 93° |
| 2026-05-08 19:57 | 43.32081 | 25.59503 | 30453 ft | 474 kts | 93° |
| 2026-05-08 19:57 | 43.31976 | 25.64037 | 29627 ft | 475 kts | 93° |
| 2026-05-08 19:57 | 43.31869 | 25.68592 | 28740 ft | 477 kts | 93° |
| 2026-05-08 19:58 | 43.31759 | 25.73154 | 27848 ft | 478 kts | 93° |
| 2026-05-08 19:58 | 43.31647 | 25.77723 | 27192 ft | 475 kts | 93° |
| 2026-05-08 19:58 | 43.31537 | 25.82232 | 26689 ft | 468 kts | 93° |
| 2026-05-08 19:58 | 43.31425 | 25.86686 | 26088 ft | 464 kts | 93° |
| 2026-05-08 19:59 | 43.31313 | 25.91102 | 25490 ft | 460 kts | 92° |
| 2026-05-08 19:59 | 43.31200 | 25.95480 | 24942 ft | 456 kts | 92° |
| 2026-05-08 19:59 | 43.31086 | 25.99819 | 24393 ft | 452 kts | 92° |
| 2026-05-08 19:59 | 43.30972 | 26.04117 | 23834 ft | 448 kts | 92° |
| 2026-05-08 20:00 | 43.30856 | 26.08381 | 23223 ft | 445 kts | 92° |
| 2026-05-08 20:00 | 43.30745 | 26.12613 | 22613 ft | 441 kts | 93° |
| 2026-05-08 20:00 | 43.30631 | 26.16802 | 22011 ft | 436 kts | 93° |
| 2026-05-08 20:00 | 43.30516 | 26.20952 | 21454 ft | 432 kts | 93° |
| 2026-05-08 20:01 | 43.30399 | 26.25055 | 20908 ft | 427 kts | 94° |
| 2026-05-08 20:01 | 43.30282 | 26.29109 | 20360 ft | 423 kts | 94° |
| 2026-05-08 20:01 | 43.30164 | 26.33176 | 19819 ft | 418 kts | 94° |
| 2026-05-08 20:01 | 43.30047 | 26.37156 | 19296 ft | 414 kts | 94° |
| 2026-05-08 20:02 | 43.29929 | 26.41091 | 18776 ft | 410 kts | 94° |
| 2026-05-08 20:02 | 43.29812 | 26.44989 | 18265 ft | 406 kts | 94° |
| 2026-05-08 20:02 | 43.29694 | 26.48848 | 17677 ft | 402 kts | 95° |
| 2026-05-08 20:02 | 43.29576 | 26.52672 | 17057 ft | 399 kts | 95° |
| 2026-05-08 20:03 | 43.29455 | 26.56475 | 16460 ft | 396 kts | 95° |
| 2026-05-08 20:03 | 43.29336 | 26.60235 | 15938 ft | 392 kts | 95° |
| 2026-05-08 20:03 | 43.29216 | 26.63957 | 15418 ft | 387 kts | 95° |
| 2026-05-08 20:03 | 43.29097 | 26.67653 | 14911 ft | 383 kts | 95° |
| 2026-05-08 20:04 | 43.28978 | 26.71286 | 14380 ft | 377 kts | 95° |
| 2026-05-08 20:04 | 43.28864 | 26.74817 | 13734 ft | 361 kts | 95° |
| 2026-05-08 20:04 | 43.28754 | 26.78184 | 13098 ft | 345 kts | 95° |
| 2026-05-08 20:04 | 43.28650 | 26.81388 | 12614 ft | 326 kts | 95° |
| 2026-05-08 20:05 | 43.28550 | 26.84421 | 12224 ft | 308 kts | 95° |
| 2026-05-08 20:05 | 43.28452 | 26.87293 | 11812 ft | 294 kts | 95° |
| 2026-05-08 20:05 | 43.28361 | 26.90031 | 11384 ft | 282 kts | 96° |
| 2026-05-08 20:05 | 43.28269 | 26.92667 | 10767 ft | 278 kts | 96° |
| 2026-05-08 20:06 | 43.28169 | 26.95356 | 10086 ft | 278 kts | 96° |
| 2026-05-08 20:06 | 43.28072 | 26.98007 | 9381 ft | 278 kts | 96° |
| 2026-05-08 20:06 | 43.27976 | 27.00651 | 8725 ft | 276 kts | 95° |
| 2026-05-08 20:06 | 43.27882 | 27.03271 | 8090 ft | 273 kts | 95° |
| 2026-05-08 20:07 | 43.27789 | 27.05867 | 7461 ft | 271 kts | 95° |
| 2026-05-08 20:07 | 43.27696 | 27.08448 | 6886 ft | 269 kts | 95° |
| 2026-05-08 20:07 | 43.27603 | 27.11006 | 6286 ft | 267 kts | 95° |
| 2026-05-08 20:07 | 43.27513 | 27.13550 | 5663 ft | 266 kts | 95° |
| 2026-05-08 20:08 | 43.27423 | 27.16042 | 5070 ft | 264 kts | 95° |
| 2026-05-08 20:08 | 43.27331 | 27.18592 | 4480 ft | 263 kts | 95° |
| 2026-05-08 20:08 | 43.27242 | 27.21060 | 4088 ft | 262 kts | 95° |
| 2026-05-08 20:08 | 43.27150 | 27.23575 | 4011 ft | 264 kts | 95° |
| 2026-05-08 20:09 | 43.27054 | 27.26104 | 3994 ft | 265 kts | 95° |
| 2026-05-08 20:09 | 43.26959 | 27.28638 | 4013 ft | 266 kts | 95° |
| 2026-05-08 20:09 | 43.26868 | 27.31027 | 4030 ft | 267 kts | 96° |
| 2026-05-08 20:09 | 43.26890 | 27.33572 | 4007 ft | 268 kts | 87° |
| 2026-05-08 20:10 | 43.26947 | 27.36120 | 4016 ft | 266 kts | 94° |
| 2026-05-08 20:10 | 43.26836 | 27.38657 | 4016 ft | 265 kts | 98° |
| 2026-05-08 20:10 | 43.26633 | 27.41172 | 4013 ft | 264 kts | 98° |
| 2026-05-08 20:10 | 43.26459 | 27.43611 | 3950 ft | 248 kts | 97° |
| 2026-05-08 20:11 | 43.26330 | 27.45896 | 3739 ft | 233 kts | 97° |
| 2026-05-08 20:11 | 43.26215 | 27.48033 | 3519 ft | 214 kts | 99° |
| 2026-05-08 20:11 | 43.26059 | 27.49916 | 3485 ft | 183 kts | 100° |
| 2026-05-08 20:11 | 43.25919 | 27.51549 | 3436 ft | 166 kts | 101° |
| 2026-05-08 20:12 | 43.25782 | 27.53104 | 3286 ft | 163 kts | 101° |
| 2026-05-08 20:12 | 43.25646 | 27.54645 | 3261 ft | 161 kts | 101° |
| 2026-05-08 20:12 | 43.25516 | 27.56130 | 3102 ft | 153 kts | 101° |
| 2026-05-08 20:12 | 43.25388 | 27.57599 | 2941 ft | 157 kts | 101° |
| 2026-05-08 20:13 | 43.25261 | 27.59100 | 2921 ft | 160 kts | 100° |
| 2026-05-08 20:13 | 43.25140 | 27.60614 | 2742 ft | 159 kts | 101° |
| 2026-05-08 20:13 | 43.25007 | 27.62123 | 2481 ft | 159 kts | 102° |
| 2026-05-08 20:13 | 43.24863 | 27.63628 | 2222 ft | 159 kts | 103° |
| 2026-05-08 20:14 | 43.24724 | 27.65138 | 1964 ft | 159 kts | 101° |
| 2026-05-08 20:14 | 43.24577 | 27.66653 | 1836 ft | 160 kts | 102° |
| 2026-05-08 20:14 | 43.24427 | 27.68175 | 1775 ft | 161 kts | 100° |
| 2026-05-08 20:14 | 43.24333 | 27.69714 | 1705 ft | 162 kts | 96° |
| 2026-05-08 20:15 | 43.24266 | 27.71235 | 1654 ft | 161 kts | 99° |
| 2026-05-08 20:15 | 43.24135 | 27.72761 | 1584 ft | 160 kts | 102° |
| 2026-05-08 20:15 | 43.23954 | 27.74254 | 1375 ft | 157 kts | 101° |
| 2026-05-08 20:15 | 43.23799 | 27.75726 | 1092 ft | 153 kts | 99° |
| 2026-05-08 20:16 | 43.23671 | 27.77168 | 785 ft | 151 kts | 98° |
| 2026-05-08 20:16 | 43.23545 | 27.78596 | 553 ft | 151 kts | 97° |
| 2026-05-08 20:16 | 43.23419 | 27.80017 | 418 ft | 150 kts | 98° |
| 2026-05-08 20:16 | 43.23291 | 27.81440 | 238 ft | 149 kts | 98° |
| 2026-05-08 20:17 | 43.23185 | 27.82628 | 232 ft | 89 kts | 97° |
| 2026-05-08 20:17 | 43.23142 | 27.83138 | 232 ft | 31 kts | 96° |
| 2026-05-08 20:17 | 43.23190 | 27.83292 | 233 ft | 16 kts | 1° |
| 2026-05-08 20:17 | 43.23307 | 27.83306 | 238 ft | 11 kts | 6° |
| 2026-05-08 20:18 | 43.23320 | 27.83308 | 236 ft | 1 kts | 7° |
| 2026-05-08 20:18 | 43.23326 | 27.83309 | 235 ft | 2 kts | 7° |
| 2026-05-08 20:18 | 43.23352 | 27.83309 | 233 ft | 5 kts | 351° |
| 2026-05-08 20:18 | 43.23396 | 27.83281 | 236 ft | 9 kts | 325° |
| 2026-05-08 20:19 | 43.23440 | 27.83231 | 231 ft | 3 kts | 318° |
| 2026-05-08 20:19 | 43.23462 | 27.83205 | 234 ft | 0 kts | 320° |
| 2026-05-08 20:19 | 43.23466 | 27.83199 | 236 ft | 0 kts | 321° |
| 2026-05-08 20:19 | 43.23467 | 27.83199 | 236 ft | 0 kts | 321° |